sensor_id;sensor_type;location;lat;lon;timestamp;pressure;altitude;pressure_sealevel;temperature;humidity
60061;BME280;45933;51.336;12.612;2023-09-19T00:01:45;99074.94;;;19.30;64.04
60061;BME280;45933;51.336;12.612;2023-09-19T00:04:12;99072.19;;;19.31;64.04
60061;BME280;45933;51.336;12.612;2023-09-19T00:06:37;99069.72;;;19.28;64.01
60061;BME280;45933;51.336;12.612;2023-09-19T00:09:03;99072.38;;;19.28;64.02
60061;BME280;45933;51.336;12.612;2023-09-19T00:11:29;99068.88;;;19.28;64.23
60061;BME280;45933;51.336;12.612;2023-09-19T00:13:54;99071.72;;;19.25;64.56
60061;BME280;45933;51.336;12.612;2023-09-19T00:16:20;99065.47;;;19.26;64.37
60061;BME280;45933;51.336;12.612;2023-09-19T00:18:45;99061.03;;;19.26;64.24
60061;BME280;45933;51.336;12.612;2023-09-19T00:21:11;99076.78;;;19.28;64.21
60061;BME280;45933;51.336;12.612;2023-09-19T00:23:36;99082.34;;;19.23;64.79
60061;BME280;45933;51.336;12.612;2023-09-19T00:26:01;99077.75;;;19.27;64.40
60061;BME280;45933;51.336;12.612;2023-09-19T00:28:27;99089.25;;;19.26;64.33
60061;BME280;45933;51.336;12.612;2023-09-19T00:30:52;99080.53;;;19.24;64.62
60061;BME280;45933;51.336;12.612;2023-09-19T00:33:19;99085.78;;;19.25;64.30
60061;BME280;45933;51.336;12.612;2023-09-19T00:35:49;99072.47;;;19.27;64.57
60061;BME280;45933;51.336;12.612;2023-09-19T00:38:14;99075.34;;;19.22;64.27
60061;BME280;45933;51.336;12.612;2023-09-19T00:40:45;99081.50;;;19.23;64.80
60061;BME280;45933;51.336;12.612;2023-09-19T00:43:11;99078.00;;;19.22;64.37
60061;BME280;45933;51.336;12.612;2023-09-19T00:45:37;99074.50;;;19.22;64.62
60061;BME280;45933;51.336;12.612;2023-09-19T00:48:04;99083.16;;;19.10;65.80
60061;BME280;45933;51.336;12.612;2023-09-19T00:50:37;99069.69;;;19.14;65.11
60061;BME280;45933;51.336;12.612;2023-09-19T00:53:05;99068.72;;;19.15;65.05
60061;BME280;45933;51.336;12.612;2023-09-19T00:55:34;99063.03;;;19.07;65.82
60061;BME280;45933;51.336;12.612;2023-09-19T00:57:59;99069.69;;;19.14;64.94
60061;BME280;45933;51.336;12.612;2023-09-19T01:00:25;99073.34;;;19.12;65.01
60061;BME280;45933;51.336;12.612;2023-09-19T01:02:50;99071.63;;;19.11;65.22
60061;BME280;45933;51.336;12.612;2023-09-19T01:05:16;99077.00;;;19.09;65.24
60061;BME280;45933;51.336;12.612;2023-09-19T01:07:42;99072.56;;;19.10;65.38
60061;BME280;45933;51.336;12.612;2023-09-19T01:10:11;99077.00;;;19.09;65.53
60061;BME280;45933;51.336;12.612;2023-09-19T01:13:21;99074.69;;;19.19;65.03
60061;BME280;45933;51.336;12.612;2023-09-19T01:16:02;99069.84;;;19.11;65.49
60061;BME280;45933;51.336;12.612;2023-09-19T01:21:55;99078.63;;;19.12;65.43
60061;BME280;45933;51.336;12.612;2023-09-19T01:27:39;99087.81;;;19.04;66.22
60061;BME280;45933;51.336;12.612;2023-09-19T01:30:10;99086.28;;;19.00;66.13
60061;BME280;45933;51.336;12.612;2023-09-19T01:32:37;99080.56;;;18.92;66.44
60061;BME280;45933;51.336;12.612;2023-09-19T01:35:04;99073.25;;;18.97;65.79
60061;BME280;45933;51.336;12.612;2023-09-19T01:37:30;99083.81;;;18.97;66.09
60061;BME280;45933;51.336;12.612;2023-09-19T01:40:04;99086.19;;;19.02;66.17
60061;BME280;45933;51.336;12.612;2023-09-19T01:42:51;99089.78;;;19.01;65.55
60061;BME280;45933;51.336;12.612;2023-09-19T01:47:59;99098.56;;;19.01;65.48
60061;BME280;45933;51.336;12.612;2023-09-19T01:50:38;99093.53;;;18.97;65.66
60061;BME280;45933;51.336;12.612;2023-09-19T01:53:26;99099.91;;;19.08;65.06
60061;BME280;45933;51.336;12.612;2023-09-19T01:55:56;99096.00;;;19.00;65.19
60061;BME280;45933;51.336;12.612;2023-09-19T01:58:39;99108.97;;;19.04;65.32
60061;BME280;45933;51.336;12.612;2023-09-19T02:01:08;99110.91;;;19.01;65.08
60061;BME280;45933;51.336;12.612;2023-09-19T02:03:36;99106.56;;;19.00;65.08
60061;BME280;45933;51.336;12.612;2023-09-19T02:06:04;99114.50;;;19.00;65.09
60061;BME280;45933;51.336;12.612;2023-09-19T02:08:30;99117.88;;;19.02;64.87
60061;BME280;45933;51.336;12.612;2023-09-19T02:10:58;99109.03;;;19.03;64.88
60061;BME280;45933;51.336;12.612;2023-09-19T02:13:25;99117.81;;;19.03;64.69
60061;BME280;45933;51.336;12.612;2023-09-19T02:15:53;99128.53;;;19.00;64.93
60061;BME280;45933;51.336;12.612;2023-09-19T02:18:18;99133.06;;;18.98;65.02
60061;BME280;45933;51.336;12.612;2023-09-19T02:20:43;99132.13;;;18.99;64.84
60061;BME280;45933;51.336;12.612;2023-09-19T02:23:10;99131.88;;;19.04;64.65
60061;BME280;45933;51.336;12.612;2023-09-19T02:25:35;99136.22;;;19.05;64.52
60061;BME280;45933;51.336;12.612;2023-09-19T02:28:01;99134.25;;;19.08;64.41
60061;BME280;45933;51.336;12.612;2023-09-19T02:30:28;99135.19;;;19.07;64.46
60061;BME280;45933;51.336;12.612;2023-09-19T02:32:54;99130.00;;;19.06;64.54
60061;BME280;45933;51.336;12.612;2023-09-19T02:35:19;99138.66;;;19.08;64.36
60061;BME280;45933;51.336;12.612;2023-09-19T02:37:45;99135.97;;;19.10;64.34
60061;BME280;45933;51.336;12.612;2023-09-19T02:40:11;99145.00;;;19.05;64.45
60061;BME280;45933;51.336;12.612;2023-09-19T02:42:47;99148.47;;;19.06;64.54
60061;BME280;45933;51.336;12.612;2023-09-19T02:45:16;99149.59;;;19.02;64.44
60061;BME280;45933;51.336;12.612;2023-09-19T02:47:43;99146.88;;;19.03;64.33
60061;BME280;45933;51.336;12.612;2023-09-19T02:50:09;99143.34;;;19.03;64.18
60061;BME280;45933;51.336;12.612;2023-09-19T02:52:36;99138.25;;;19.00;64.36
60061;BME280;45933;51.336;12.612;2023-09-19T02:55:01;99135.63;;;19.00;64.10
60061;BME280;45933;51.336;12.612;2023-09-19T02:57:28;99141.00;;;18.98;63.99
60061;BME280;45933;51.336;12.612;2023-09-19T02:59:54;99137.75;;;18.93;64.29
60061;BME280;45933;51.336;12.612;2023-09-19T03:02:19;99135.78;;;18.97;64.07
60061;BME280;45933;51.336;12.612;2023-09-19T03:04:45;99142.75;;;18.98;63.86
60061;BME280;45933;51.336;12.612;2023-09-19T03:07:12;99146.44;;;18.95;63.90
60061;BME280;45933;51.336;12.612;2023-09-19T03:09:37;99148.13;;;18.96;63.75
60061;BME280;45933;51.336;12.612;2023-09-19T03:12:03;99147.13;;;18.99;63.56
60061;BME280;45933;51.336;12.612;2023-09-19T03:14:29;99156.06;;;18.96;63.71
60061;BME280;45933;51.336;12.612;2023-09-19T03:17:00;99156.91;;;18.97;63.43
60061;BME280;45933;51.336;12.612;2023-09-19T03:19:25;99155.28;;;18.94;63.52
60061;BME280;45933;51.336;12.612;2023-09-19T03:21:51;99158.88;;;18.93;63.42
60061;BME280;45933;51.336;12.612;2023-09-19T03:24:17;99162.19;;;18.97;63.28
60061;BME280;45933;51.336;12.612;2023-09-19T03:26:42;99162.28;;;18.95;63.36
60061;BME280;45933;51.336;12.612;2023-09-19T03:29:07;99168.31;;;18.97;63.21
60061;BME280;45933;51.336;12.612;2023-09-19T03:31:33;99164.81;;;18.97;63.17
60061;BME280;45933;51.336;12.612;2023-09-19T03:34:01;99171.13;;;18.94;63.25
60061;BME280;45933;51.336;12.612;2023-09-19T03:36:29;99173.69;;;18.96;63.17
60061;BME280;45933;51.336;12.612;2023-09-19T03:38:54;99173.69;;;18.96;63.00
60061;BME280;45933;51.336;12.612;2023-09-19T03:41:19;99178.81;;;18.99;62.95
60061;BME280;45933;51.336;12.612;2023-09-19T03:43:45;99174.38;;;18.99;62.93
60061;BME280;45933;51.336;12.612;2023-09-19T03:46:10;99178.72;;;19.00;62.77
60061;BME280;45933;51.336;12.612;2023-09-19T03:48:37;99176.25;;;18.97;62.97
60061;BME280;45933;51.336;12.612;2023-09-19T03:51:03;99183.31;;;18.97;62.98
60061;BME280;45933;51.336;12.612;2023-09-19T03:53:28;99178.03;;;18.97;62.82
60061;BME280;45933;51.336;12.612;2023-09-19T03:55:53;99174.63;;;18.95;62.70
60061;BME280;45933;51.336;12.612;2023-09-19T03:58:19;99181.63;;;18.96;62.60
60061;BME280;45933;51.336;12.612;2023-09-19T04:00:45;99172.47;;;18.86;62.96
60061;BME280;45933;51.336;12.612;2023-09-19T04:03:11;99187.31;;;18.88;62.89
60061;BME280;45933;51.336;12.612;2023-09-19T04:05:44;99190.81;;;18.89;62.78
60061;BME280;45933;51.336;12.612;2023-09-19T04:08:09;99196.25;;;18.86;62.84
60061;BME280;45933;51.336;12.612;2023-09-19T04:10:35;99191.91;;;18.85;62.87
60061;BME280;45933;51.336;12.612;2023-09-19T04:13:00;99193.78;;;18.83;62.52
60061;BME280;45933;51.336;12.612;2023-09-19T04:15:26;99190.44;;;18.79;62.87
60061;BME280;45933;51.336;12.612;2023-09-19T04:17:51;99198.38;;;18.79;62.97
60061;BME280;45933;51.336;12.612;2023-09-19T04:20:18;99193.22;;;18.76;62.93
60061;BME280;45933;51.336;12.612;2023-09-19T04:22:45;99192.56;;;18.72;62.87
60061;BME280;45933;51.336;12.612;2023-09-19T04:25:10;99209.25;;;18.73;62.71
60061;BME280;45933;51.336;12.612;2023-09-19T04:27:35;99212.97;;;18.69;63.06
60061;BME280;45933;51.336;12.612;2023-09-19T04:30:01;99212.97;;;18.69;62.90
60061;BME280;45933;51.336;12.612;2023-09-19T04:32:34;99223.59;;;18.67;62.91
60061;BME280;45933;51.336;12.612;2023-09-19T04:35:01;99217.47;;;18.67;62.85
60061;BME280;45933;51.336;12.612;2023-09-19T04:37:30;99217.84;;;18.59;63.13
60061;BME280;45933;51.336;12.612;2023-09-19T04:39:55;99229.25;;;18.60;63.00
60061;BME280;45933;51.336;12.612;2023-09-19T04:42:21;99221.34;;;18.60;62.96
60061;BME280;45933;51.336;12.612;2023-09-19T04:44:47;99234.72;;;18.57;63.02
60061;BME280;45933;51.336;12.612;2023-09-19T04:47:14;99240.00;;;18.57;62.84
60061;BME280;45933;51.336;12.612;2023-09-19T04:49:41;99244.66;;;18.51;62.92
60061;BME280;45933;51.336;12.612;2023-09-19T04:52:06;99239.44;;;18.50;63.11
60061;BME280;45933;51.336;12.612;2023-09-19T04:54:32;99250.16;;;18.47;63.13
60061;BME280;45933;51.336;12.612;2023-09-19T04:56:59;99249.38;;;18.45;63.16
60061;BME280;45933;51.336;12.612;2023-09-19T04:59:24;99252.00;;;18.45;63.14
60061;BME280;45933;51.336;12.612;2023-09-19T05:01:49;99258.22;;;18.44;62.97
60061;BME280;45933;51.336;12.612;2023-09-19T05:04:15;99259.94;;;18.45;62.88
60061;BME280;45933;51.336;12.612;2023-09-19T05:06:40;99263.50;;;18.44;62.87
60061;BME280;45933;51.336;12.612;2023-09-19T05:09:06;99276.69;;;18.44;62.99
60061;BME280;45933;51.336;12.612;2023-09-19T05:11:31;99275.00;;;18.43;63.08
60061;BME280;45933;51.336;12.612;2023-09-19T05:13:56;99275.13;;;18.40;63.02
60061;BME280;45933;51.336;12.612;2023-09-19T05:16:22;99279.41;;;18.42;62.82
60061;BME280;45933;51.336;12.612;2023-09-19T05:18:47;99289.13;;;18.42;63.01
60061;BME280;45933;51.336;12.612;2023-09-19T05:21:13;99295.63;;;18.35;63.41
60061;BME280;45933;51.336;12.612;2023-09-19T05:23:38;99290.97;;;18.40;63.05
60061;BME280;45933;51.336;12.612;2023-09-19T05:26:03;99307.72;;;18.39;63.11
60061;BME280;45933;51.336;12.612;2023-09-19T05:28:30;99308.53;;;18.41;62.64
60061;BME280;45933;51.336;12.612;2023-09-19T05:30:55;99316.38;;;18.42;62.58
60061;BME280;45933;51.336;12.612;2023-09-19T05:33:21;99310.31;;;18.40;62.55
60061;BME280;45933;51.336;12.612;2023-09-19T05:35:48;99315.50;;;18.42;62.28
60061;BME280;45933;51.336;12.612;2023-09-19T05:38:13;99321.72;;;18.41;62.48
60061;BME280;45933;51.336;12.612;2023-09-19T05:40:40;99320.00;;;18.40;62.27
60061;BME280;45933;51.336;12.612;2023-09-19T05:43:10;99318.22;;;18.40;62.06
60061;BME280;45933;51.336;12.612;2023-09-19T05:45:35;99312.88;;;18.42;62.11
60061;BME280;45933;51.336;12.612;2023-09-19T05:48:09;99325.91;;;18.45;61.76
60061;BME280;45933;51.336;12.612;2023-09-19T05:50:35;99329.56;;;18.42;61.84
60061;BME280;45933;51.336;12.612;2023-09-19T05:53:01;99320.94;;;18.39;61.54
60061;BME280;45933;51.336;12.612;2023-09-19T05:55:26;99326.16;;;18.40;61.55
60061;BME280;45933;51.336;12.612;2023-09-19T05:57:53;99330.50;;;18.41;61.66
60061;BME280;45933;51.336;12.612;2023-09-19T06:00:20;99324.41;;;18.39;61.63
60061;BME280;45933;51.336;12.612;2023-09-19T06:02:51;99333.03;;;18.43;61.32
60061;BME280;45933;51.336;12.612;2023-09-19T06:05:17;99335.75;;;18.41;61.59
60061;BME280;45933;51.336;12.612;2023-09-19T06:07:42;99329.63;;;18.41;61.27
60061;BME280;45933;51.336;12.612;2023-09-19T06:10:08;99341.97;;;18.40;61.11
60061;BME280;45933;51.336;12.612;2023-09-19T06:12:38;99349.66;;;18.45;60.94
60061;BME280;45933;51.336;12.612;2023-09-19T06:15:04;99351.66;;;18.40;60.71
60061;BME280;45933;51.336;12.612;2023-09-19T06:17:46;99345.69;;;18.36;60.40
60061;BME280;45933;51.336;12.612;2023-09-19T06:20:11;99332.34;;;18.39;60.20
60061;BME280;45933;51.336;12.612;2023-09-19T06:22:44;99340.97;;;18.43;60.13
60061;BME280;45933;51.336;12.612;2023-09-19T06:25:11;99342.53;;;18.47;59.85
60061;BME280;45933;51.336;12.612;2023-09-19T06:27:40;99347.63;;;18.50;59.36
60061;BME280;45933;51.336;12.612;2023-09-19T06:30:09;99358.28;;;18.48;59.61
60061;BME280;45933;51.336;12.612;2023-09-19T06:32:36;99356.47;;;18.49;59.46
60061;BME280;45933;51.336;12.612;2023-09-19T06:35:02;99358.81;;;18.55;59.13
60061;BME280;45933;51.336;12.612;2023-09-19T06:37:32;99353.41;;;18.58;58.82
60061;BME280;45933;51.336;12.612;2023-09-19T06:39:59;99360.28;;;18.61;58.73
60061;BME280;45933;51.336;12.612;2023-09-19T06:42:25;99363.44;;;18.69;59.02
60061;BME280;45933;51.336;12.612;2023-09-19T06:44:50;99362.19;;;18.76;59.34
60061;BME280;45933;51.336;12.612;2023-09-19T06:47:16;99367.34;;;18.79;59.06
60061;BME280;45933;51.336;12.612;2023-09-19T06:49:42;99367.97;;;18.84;58.61
60061;BME280;45933;51.336;12.612;2023-09-19T06:52:10;99379.28;;;18.86;58.19
60061;BME280;45933;51.336;12.612;2023-09-19T06:54:35;99382.22;;;18.97;58.34
60061;BME280;45933;51.336;12.612;2023-09-19T06:57:01;99392.41;;;19.05;57.93
60061;BME280;45933;51.336;12.612;2023-09-19T06:59:26;99396.53;;;19.11;57.51
60061;BME280;45933;51.336;12.612;2023-09-19T07:01:52;99392.72;;;19.16;57.54
60061;BME280;45933;51.336;12.612;2023-09-19T07:04:17;99403.72;;;19.24;57.36
60061;BME280;45933;51.336;12.612;2023-09-19T07:06:48;99403.50;;;19.29;57.22
60061;BME280;45933;51.336;12.612;2023-09-19T07:09:15;99412.66;;;19.39;57.31
60061;BME280;45933;51.336;12.612;2023-09-19T07:11:40;99399.91;;;19.47;57.49
60061;BME280;45933;51.336;12.612;2023-09-19T07:14:05;99412.63;;;19.56;56.75
60061;BME280;45933;51.336;12.612;2023-09-19T07:16:31;99414.81;;;19.66;56.07
60061;BME280;45933;51.336;12.612;2023-09-19T07:18:56;99425.22;;;19.69;54.82
60061;BME280;45933;51.336;12.612;2023-09-19T07:21:22;99419.44;;;19.78;54.29
60061;BME280;45933;51.336;12.612;2023-09-19T07:23:47;99421.75;;;19.84;54.34
60061;BME280;45933;51.336;12.612;2023-09-19T07:26:13;99414.94;;;19.96;54.45
60061;BME280;45933;51.336;12.612;2023-09-19T07:28:38;99419.03;;;20.01;53.08
60061;BME280;45933;51.336;12.612;2023-09-19T07:31:03;99423.75;;;20.12;53.61
60061;BME280;45933;51.336;12.612;2023-09-19T07:33:30;99421.53;;;20.20;53.53
60061;BME280;45933;51.336;12.612;2023-09-19T07:35:55;99426.59;;;20.25;52.74
60061;BME280;45933;51.336;12.612;2023-09-19T07:38:20;99440.31;;;20.31;52.10
60061;BME280;45933;51.336;12.612;2023-09-19T07:40:46;99454.41;;;20.32;51.66
60061;BME280;45933;51.336;12.612;2023-09-19T07:43:11;99447.06;;;20.37;51.41
60061;BME280;45933;51.336;12.612;2023-09-19T07:45:37;99457.41;;;20.42;50.74
60061;BME280;45933;51.336;12.612;2023-09-19T07:48:02;99460.03;;;20.42;51.08
60061;BME280;45933;51.336;12.612;2023-09-19T07:50:30;99467.19;;;20.40;49.62
60061;BME280;45933;51.336;12.612;2023-09-19T07:52:55;99470.44;;;20.45;49.63
60061;BME280;45933;51.336;12.612;2023-09-19T07:55:21;99467.75;;;20.46;49.43
60061;BME280;45933;51.336;12.612;2023-09-19T07:57:52;99473.22;;;20.59;49.45
60061;BME280;45933;51.336;12.612;2023-09-19T08:00:17;99473.91;;;20.62;48.52
60061;BME280;45933;51.336;12.612;2023-09-19T08:02:43;99461.75;;;20.74;48.69
60061;BME280;45933;51.336;12.612;2023-09-19T08:05:09;99483.53;;;20.79;47.67
60061;BME280;45933;51.336;12.612;2023-09-19T08:07:36;99484.53;;;20.93;47.92
60061;BME280;45933;51.336;12.612;2023-09-19T08:10:03;99483.59;;;20.94;47.89
60061;BME280;45933;51.336;12.612;2023-09-19T08:12:29;99486.84;;;20.99;47.59
60061;BME280;45933;51.336;12.612;2023-09-19T08:14:56;99477.47;;;21.07;47.71
60061;BME280;45933;51.336;12.612;2023-09-19T08:17:22;99492.38;;;21.24;48.76
60061;BME280;45933;51.336;12.612;2023-09-19T08:19:49;99481.19;;;21.35;48.34
60061;BME280;45933;51.336;12.612;2023-09-19T08:22:18;99491.16;;;21.46;47.79
60061;BME280;45933;51.336;12.612;2023-09-19T08:24:43;99484.06;;;21.46;46.81
60061;BME280;45933;51.336;12.612;2023-09-19T08:27:09;99492.69;;;21.50;46.07
60061;BME280;45933;51.336;12.612;2023-09-19T08:29:35;99493.47;;;21.52;46.71
60061;BME280;45933;51.336;12.612;2023-09-19T08:32:00;99493.53;;;21.50;46.73
60061;BME280;45933;51.336;12.612;2023-09-19T08:34:26;99483.88;;;21.49;46.99
60061;BME280;45933;51.336;12.612;2023-09-19T08:36:54;99483.50;;;21.41;45.75
60061;BME280;45933;51.336;12.612;2023-09-19T08:39:22;99482.63;;;21.40;46.26
60061;BME280;45933;51.336;12.612;2023-09-19T08:41:47;99492.47;;;21.38;46.24
60061;BME280;45933;51.336;12.612;2023-09-19T08:44:13;99489.81;;;21.38;46.50
60061;BME280;45933;51.336;12.612;2023-09-19T08:46:41;99487.53;;;21.32;46.42
60061;BME280;45933;51.336;12.612;2023-09-19T08:49:19;99483.19;;;21.31;46.57
60061;BME280;45933;51.336;12.612;2023-09-19T08:51:54;99481.13;;;21.21;46.33
60061;BME280;45933;51.336;12.612;2023-09-19T08:54:25;99482.00;;;21.21;46.42
60061;BME280;45933;51.336;12.612;2023-09-19T08:56:55;99482.84;;;21.22;47.40
60061;BME280;45933;51.336;12.612;2023-09-19T08:59:22;99490.59;;;21.25;47.30
60061;BME280;45933;51.336;12.612;2023-09-19T09:01:53;99492.22;;;21.27;46.68
60061;BME280;45933;51.336;12.612;2023-09-19T09:04:22;99480.16;;;21.37;47.17
60061;BME280;45933;51.336;12.612;2023-09-19T09:06:49;99497.03;;;21.51;46.58
60061;BME280;45933;51.336;12.612;2023-09-19T09:09:16;99490.44;;;21.72;46.96
60061;BME280;45933;51.336;12.612;2023-09-19T09:11:42;99482.78;;;21.96;46.38
60061;BME280;45933;51.336;12.612;2023-09-19T09:14:07;99489.53;;;22.16;45.92
60061;BME280;45933;51.336;12.612;2023-09-19T09:16:33;99490.00;;;22.37;44.84
60061;BME280;45933;51.336;12.612;2023-09-19T09:18:59;99491.91;;;22.62;44.64
60061;BME280;45933;51.336;12.612;2023-09-19T09:21:25;99492.97;;;22.86;44.29
60061;BME280;45933;51.336;12.612;2023-09-19T09:23:50;99498.34;;;23.26;44.54
60061;BME280;45933;51.336;12.612;2023-09-19T09:26:42;99506.03;;;23.56;44.43
60061;BME280;45933;51.336;12.612;2023-09-19T09:29:12;99504.72;;;23.76;43.23
60061;BME280;45933;51.336;12.612;2023-09-19T09:31:38;99501.09;;;23.90;41.84
60061;BME280;45933;51.336;12.612;2023-09-19T09:34:04;99489.91;;;23.97;41.46
60061;BME280;45933;51.336;12.612;2023-09-19T09:36:38;99485.75;;;24.06;40.48
60061;BME280;45933;51.336;12.612;2023-09-19T09:39:05;99486.81;;;24.16;41.41
60061;BME280;45933;51.336;12.612;2023-09-19T09:41:44;99499.16;;;24.17;40.79
60061;BME280;45933;51.336;12.612;2023-09-19T09:44:17;99497.97;;;24.21;40.54
60061;BME280;45933;51.336;12.612;2023-09-19T09:46:44;99502.00;;;24.27;40.22
60061;BME280;45933;51.336;12.612;2023-09-19T09:49:22;99484.97;;;24.42;40.17
60061;BME280;45933;51.336;12.612;2023-09-19T09:52:01;99489.00;;;24.35;36.97
60061;BME280;45933;51.336;12.612;2023-09-19T09:54:31;99493.75;;;24.56;36.91
60061;BME280;45933;51.336;12.612;2023-09-19T09:57:12;99492.75;;;24.69;35.69
60061;BME280;45933;51.336;12.612;2023-09-19T09:59:53;99498.38;;;24.77;35.24
60061;BME280;45933;51.336;12.612;2023-09-19T10:02:27;99498.66;;;24.86;34.12
60061;BME280;45933;51.336;12.612;2023-09-19T10:05:11;99502.75;;;25.02;34.16
60061;BME280;45933;51.336;12.612;2023-09-19T10:07:48;99501.34;;;25.10;35.05
60061;BME280;45933;51.336;12.612;2023-09-19T10:10:29;99505.78;;;25.22;34.76
60061;BME280;45933;51.336;12.612;2023-09-19T10:13:05;99515.34;;;25.24;31.49
60061;BME280;45933;51.336;12.612;2023-09-19T10:15:32;99501.00;;;25.14;31.29
60061;BME280;45933;51.336;12.612;2023-09-19T10:18:01;99503.09;;;25.22;30.95
60061;BME280;45933;51.336;12.612;2023-09-19T10:20:30;99511.69;;;25.25;31.31
60061;BME280;45933;51.336;12.612;2023-09-19T10:22:56;99514.13;;;25.04;31.70
60061;BME280;45933;51.336;12.612;2023-09-19T10:25:26;99506.13;;;25.04;31.56
60061;BME280;45933;51.336;12.612;2023-09-19T10:27:57;99503.75;;;24.89;31.67
60061;BME280;45933;51.336;12.612;2023-09-19T10:30:24;99510.84;;;24.77;31.84
60061;BME280;45933;51.336;12.612;2023-09-19T10:33:03;99516.50;;;24.72;31.75
60061;BME280;45933;51.336;12.612;2023-09-19T10:35:29;99516.69;;;24.58;32.59
60061;BME280;45933;51.336;12.612;2023-09-19T10:37:57;99534.72;;;24.42;32.67
60061;BME280;45933;51.336;12.612;2023-09-19T10:40:26;99537.06;;;24.21;32.69
60061;BME280;45933;51.336;12.612;2023-09-19T10:43:00;99528.25;;;24.20;32.00
60061;BME280;45933;51.336;12.612;2023-09-19T10:45:25;99521.94;;;24.21;33.09
60061;BME280;45933;51.336;12.612;2023-09-19T10:47:51;99527.34;;;24.20;32.90
60061;BME280;45933;51.336;12.612;2023-09-19T10:50:20;99519.16;;;24.23;32.88
60061;BME280;45933;51.336;12.612;2023-09-19T10:52:50;99529.38;;;24.29;32.64
60061;BME280;45933;51.336;12.612;2023-09-19T10:55:25;99520.22;;;24.46;33.02
60061;BME280;45933;51.336;12.612;2023-09-19T10:57:51;99512.53;;;24.54;33.28
60061;BME280;45933;51.336;12.612;2023-09-19T11:00:17;99509.22;;;24.63;32.50
60061;BME280;45933;51.336;12.612;2023-09-19T11:05:42;99512.44;;;24.80;31.50
60061;BME280;45933;51.336;12.612;2023-09-19T11:08:08;99512.38;;;24.92;31.08
60061;BME280;45933;51.336;12.612;2023-09-19T11:10:50;99523.94;;;25.04;30.61
60061;BME280;45933;51.336;12.612;2023-09-19T11:13:26;99515.09;;;25.16;31.70
60061;BME280;45933;51.336;12.612;2023-09-19T11:26:48;99522.50;;;25.59;30.06
60061;BME280;45933;51.336;12.612;2023-09-19T11:29:26;99522.75;;;25.67;30.56
60061;BME280;45933;51.336;12.612;2023-09-19T11:31:52;99522.41;;;25.72;30.10
60061;BME280;45933;51.336;12.612;2023-09-19T11:39:40;99514.84;;;25.54;29.65
60061;BME280;45933;51.336;12.612;2023-09-19T11:42:45;99505.88;;;25.55;29.01
60061;BME280;45933;51.336;12.612;2023-09-19T11:48:06;99513.94;;;25.78;29.82
60061;BME280;45933;51.336;12.612;2023-09-19T11:50:33;99519.06;;;25.92;29.30
60061;BME280;45933;51.336;12.612;2023-09-19T11:53:00;99517.63;;;26.22;29.99
60061;BME280;45933;51.336;12.612;2023-09-19T11:55:28;99515.81;;;26.33;29.53
60061;BME280;45933;51.336;12.612;2023-09-19T11:57:57;99520.53;;;26.41;28.44
60061;BME280;45933;51.336;12.612;2023-09-19T12:00:24;99508.03;;;26.64;28.81
60061;BME280;45933;51.336;12.612;2023-09-19T12:02:52;99510.81;;;26.74;28.79
60061;BME280;45933;51.336;12.612;2023-09-19T12:05:28;99506.53;;;26.71;27.62
60061;BME280;45933;51.336;12.612;2023-09-19T12:07:54;99503.31;;;26.89;28.54
60061;BME280;45933;51.336;12.612;2023-09-19T12:10:20;99504.56;;;26.84;27.75
60061;BME280;45933;51.336;12.612;2023-09-19T12:12:48;99505.41;;;26.85;27.22
60061;BME280;45933;51.336;12.612;2023-09-19T12:15:14;99511.44;;;26.98;27.45
60061;BME280;45933;51.336;12.612;2023-09-19T12:17:41;99517.38;;;27.13;27.72
60061;BME280;45933;51.336;12.612;2023-09-19T12:20:09;99507.38;;;27.26;28.05
60061;BME280;45933;51.336;12.612;2023-09-19T12:22:42;99511.63;;;27.50;28.32
60061;BME280;45933;51.336;12.612;2023-09-19T12:25:09;99506.59;;;27.56;27.24
60061;BME280;45933;51.336;12.612;2023-09-19T12:27:49;99500.00;;;27.81;27.55
60061;BME280;45933;51.336;12.612;2023-09-19T12:30:18;99501.91;;;27.91;27.00
60061;BME280;45933;51.336;12.612;2023-09-19T12:32:45;99492.25;;;28.09;27.50
60061;BME280;45933;51.336;12.612;2023-09-19T12:35:27;99500.78;;;28.24;28.15
60061;BME280;45933;51.336;12.612;2023-09-19T12:37:55;99498.75;;;28.37;27.14
60061;BME280;45933;51.336;12.612;2023-09-19T12:40:21;99487.44;;;28.33;26.95
60061;BME280;45933;51.336;12.612;2023-09-19T12:42:54;99486.69;;;28.31;26.66
60061;BME280;45933;51.336;12.612;2023-09-19T12:45:28;99484.13;;;28.30;26.35
60061;BME280;45933;51.336;12.612;2023-09-19T12:51:08;99477.09;;;27.98;26.05
60061;BME280;45933;51.336;12.612;2023-09-19T12:56:13;99499.31;;;27.68;26.73
60061;BME280;45933;51.336;12.612;2023-09-19T12:58:52;99476.88;;;27.59;27.33
60061;BME280;45933;51.336;12.612;2023-09-19T13:01:22;99477.72;;;27.60;27.46
60061;BME280;45933;51.336;12.612;2023-09-19T13:04:16;99488.25;;;27.73;28.02
60061;BME280;45933;51.336;12.612;2023-09-19T13:06:47;99483.50;;;27.76;26.76
60061;BME280;45933;51.336;12.612;2023-09-19T13:09:14;99482.25;;;27.80;27.18
60061;BME280;45933;51.336;12.612;2023-09-19T13:11:41;99492.56;;;27.85;26.64
60061;BME280;45933;51.336;12.612;2023-09-19T13:14:26;99479.34;;;27.93;26.32
60061;BME280;45933;51.336;12.612;2023-09-19T13:16:58;99464.69;;;27.97;26.14
60061;BME280;45933;51.336;12.612;2023-09-19T13:19:37;99470.22;;;27.96;26.57
60061;BME280;45933;51.336;12.612;2023-09-19T13:22:05;99464.25;;;27.92;26.25
60061;BME280;45933;51.336;12.612;2023-09-19T13:24:31;99466.13;;;28.01;26.82
60061;BME280;45933;51.336;12.612;2023-09-19T13:27:00;99468.94;;;28.00;26.38
60061;BME280;45933;51.336;12.612;2023-09-19T13:29:25;99467.81;;;28.02;26.26
60061;BME280;45933;51.336;12.612;2023-09-19T13:31:52;99459.38;;;28.07;26.34
60061;BME280;45933;51.336;12.612;2023-09-19T13:34:20;99467.28;;;28.08;26.29